Copley, Ohio
Current Conditions -  °F | °C
As of 8:54 AM on Monday 20 Oct 2014 (Local Time) from KAKR Reporting Station
Broken Clouds Broken Clouds  
Wind Chill: 43°   Ceiling: 10000
Heat Index: 48°   Visibility: 10mi
Dew Point: 39°   Wind: 12mph
Humidity: 71%   Direction: 200°SSW
Pressure: 29.96"   Gusts: NA
Location:  41.1017°N, 81.6573°W
Report Text: KAKR 201254Z AUTO 20010KT 10SM BKN100 09/04 A2996 RMK AO2 SLP147 T00890039
Loading
Personal Weather Stations






























Interactive Weather Map
Tropical Storm Tracking
New forecast layout! Learn more

10-Day Weather Forecast

Advertisements
Track Severe Weather on mobile